Time;durP1;ratioP1;P1;durP2;ratioP2;P2;SDS_P1;SDS_P2;PMS_P1;PMS_P2;Temp;Humidity;BMP_temperature;BMP_pressure;BME280_temperature;BME280_humidity;BME280_pressure;Samples;Min_cycle;Max_cycle;Signal;HPM_P1;HPM_P2
2021/12/02 00:01:30;;;;;;;15.57;8.55;;;;;;;-1.58;100.00;94596.91;5078727;28;20044;-76
2021/12/02 00:03:58;;;;;;;16.15;8.63;;;;;;;-1.53;100.00;94604.09;5079828;28;20564;-76
2021/12/02 00:06:26;;;;;;;17.95;9.27;;;;;;;-1.60;100.00;94603.94;5082874;28;20112;-77
2021/12/02 00:08:53;;;;;;;18.15;9.43;;;;;;;-1.59;100.00;94604.72;5079850;28;20132;-76
2021/12/02 00:11:21;;;;;;;15.98;7.60;;;;;;;-1.66;100.00;94611.44;5081651;28;20880;-76
2021/12/02 00:16:29;;;;;;;22.00;10.63;;;;;;;-2.32;100.00;94603.75;5074004;28;20037;-77
2021/12/02 00:21:45;;;;;;;15.57;8.25;;;;;;;-2.10;100.00;94611.75;5078424;28;20540;-77
2021/12/02 00:24:19;;;;;;;22.20;9.60;;;;;;;-2.08;100.00;94605.53;5077774;28;20486;-77
2021/12/02 00:26:48;;;;;;;14.80;8.10;;;;;;;-2.58;100.00;94588.53;5081490;28;20556;-76
2021/12/02 00:29:19;;;;;;;17.85;9.23;;;;;;;-2.47;100.00;94605.28;5077879;28;20044;-77
2021/12/02 00:31:49;;;;;;;29.77;11.10;;;;;;;-2.46;100.00;94606.91;5077330;28;20105;-76
2021/12/02 00:34:16;;;;;;;24.60;9.82;;;;;;;-2.45;100.00;94588.06;5080760;28;20039;-76
2021/12/02 00:36:43;;;;;;;23.10;10.55;;;;;;;-2.24;100.00;94608.84;5075986;28;20028;-76
2021/12/02 00:39:13;;;;;;;19.42;11.20;;;;;;;-2.19;100.00;94604.06;5076791;28;20529;-76
2021/12/02 00:41:41;;;;;;;17.00;10.55;;;;;;;-2.44;100.00;94607.53;5075466;28;20035;-77
2021/12/02 00:44:08;;;;;;;24.50;11.40;;;;;;;-2.36;100.00;94608.38;5079144;28;20119;-77
2021/12/02 00:46:36;;;;;;;23.52;10.32;;;;;;;-2.27;100.00;94609.16;5075711;28;20036;-76
2021/12/02 00:49:07;;;;;;;29.52;13.88;;;;;;;-2.32;100.00;94619.06;5080952;28;20036;-77
2021/12/02 00:51:35;;;;;;;23.42;12.13;;;;;;;-2.26;100.00;94618.41;5083813;28;20115;-77
2021/12/02 00:54:04;;;;;;;26.48;12.02;;;;;;;-2.37;100.00;94621.28;5076803;28;20052;-77
2021/12/02 00:56:32;;;;;;;28.70;9.65;;;;;;;-2.73;100.00;94621.47;5077578;28;20052;-77
2021/12/02 00:58:59;;;;;;;21.42;9.93;;;;;;;-2.71;100.00;94614.47;5061251;28;20052;-76
2021/12/02 01:01:33;;;;;;;18.00;9.43;;;;;;;-2.53;100.00;94612.59;5080728;28;20044;-77
2021/12/02 01:04:03;;;;;;;18.83;10.65;;;;;;;-2.50;100.00;94616.63;5076291;28;20472;-77
2021/12/02 01:06:30;;;;;;;22.80;10.43;;;;;;;-2.81;100.00;94603.59;5073010;28;20036;-77
2021/12/02 01:08:57;;;;;;;16.75;9.50;;;;;;;-2.73;100.00;94621.47;5071864;28;20047;-76
2021/12/02 01:11:24;;;;;;;28.67;10.45;;;;;;;-2.77;100.00;94615.91;5076247;28;20409;-77
2021/12/02 01:13:52;;;;;;;23.40;8.98;;;;;;;-2.62;100.00;94636.50;5072807;28;20064;-77
2021/12/02 01:16:22;;;;;;;20.65;9.75;;;;;;;-2.61;100.00;94630.44;5080979;28;20521;-77
2021/12/02 01:18:50;;;;;;;19.70;9.25;;;;;;;-2.66;100.00;94607.16;5074443;28;20040;-77
2021/12/02 01:21:21;;;;;;;20.60;8.60;;;;;;;-2.78;100.00;94603.28;5076820;28;20606;-77
2021/12/02 01:23:51;;;;;;;17.67;8.95;;;;;;;-2.94;100.00;94615.00;5079173;28;20070;-78
2021/12/02 01:26:19;;;;;;;17.40;7.95;;;;;;;-2.84;100.00;94629.41;5076673;28;20040;-79
2021/12/02 01:28:49;;;;;;;15.63;8.13;;;;;;;-2.88;100.00;94629.72;5078408;28;20044;-79
2021/12/02 01:31:16;;;;;;;17.85;8.80;;;;;;;-2.95;100.00;94618.53;5081134;28;20788;-79
2021/12/02 01:33:46;;;;;;;15.30;10.25;;;;;;;-3.00;100.00;94605.44;5076024;28;20416;-79
2021/12/02 01:36:14;;;;;;;14.20;7.70;;;;;;;-2.80;100.00;94620.50;5073707;28;20441;-79
2021/12/02 01:38:41;;;;;;;16.33;8.77;;;;;;;-2.89;100.00;94628.09;5077384;28;20040;-79
2021/12/02 01:41:08;;;;;;;39.20;10.20;;;;;;;-2.81;100.00;94619.72;5075611;28;20046;-79
2021/12/02 01:43:48;;;;;;;16.13;9.82;;;;;;;-3.01;100.00;94614.03;5076917;28;20044;-79
2021/12/02 01:46:18;;;;;;;21.63;10.70;;;;;;;-3.21;100.00;94597.38;5078140;28;20067;-80
2021/12/02 01:48:57;;;;;;;24.83;11.05;;;;;;;-3.07;100.00;94589.97;5073473;28;20044;-79
2021/12/02 01:51:26;;;;;;;23.20;12.98;;;;;;;-3.03;100.00;94600.66;5077016;28;20563;-81
2021/12/02 01:54:02;;;;;;;24.75;11.93;;;;;;;-3.17;100.00;94596.13;5073268;28;20040;-80
2021/12/02 01:56:31;;;;;;;20.10;10.75;;;;;;;-3.22;100.00;94590.69;5077007;28;20051;-81
2021/12/02 01:59:09;;;;;;;18.88;9.73;;;;;;;-3.35;100.00;94575.81;5074802;28;20037;-80
2021/12/02 02:01:40;;;;;;;17.60;10.52;;;;;;;-3.25;100.00;94576.50;5073767;28;20391;-80
2021/12/02 02:04:07;;;;;;;28.65;11.07;;;;;;;-3.03;100.00;94595.53;5079638;28;20040;-79
2021/12/02 02:06:49;;;;;;;21.05;10.60;;;;;;;-2.99;100.00;94590.94;5077136;28;20042;-79
2021/12/02 02:09:16;;;;;;;22.42;11.57;;;;;;;-3.07;100.00;94578.97;5074587;28;21657;-80
2021/12/02 02:11:43;;;;;;;19.92;10.88;;;;;;;-2.97;100.00;94594.94;5077237;28;20056;-80
2021/12/02 02:14:10;;;;;;;20.35;10.45;;;;;;;-2.96;100.00;94590.66;5073912;28;20044;-80
2021/12/02 02:16:39;;;;;;;18.42;10.57;;;;;;;-2.99;100.00;94586.66;5074823;28;20036;-79
2021/12/02 02:19:06;;;;;;;19.92;11.27;;;;;;;-2.89;100.00;94582.22;5077064;28;20040;-81
2021/12/02 02:21:36;;;;;;;25.88;13.25;;;;;;;-2.89;100.00;94579.66;5079353;28;20036;-81
2021/12/02 02:24:05;;;;;;;23.05;11.35;;;;;;;-2.86;100.00;94580.31;5072773;28;20040;-81
2021/12/02 02:26:36;;;;;;;17.75;9.77;;;;;;;-2.86;100.00;94598.97;5070181;28;20043;-81
2021/12/02 02:29:06;;;;;;;16.42;9.98;;;;;;;-2.84;100.00;94603.94;5074557;28;20036;-81
2021/12/02 02:31:35;;;;;;;18.65;10.35;;;;;;;-2.91;100.00;94594.31;5076994;28;20044;-81
2021/12/02 02:34:02;;;;;;;18.25;9.60;;;;;;;-2.92;100.00;94587.66;5080472;28;20036;-82
2021/12/02 02:36:32;;;;;;;14.52;8.85;;;;;;;-2.94;100.00;94593.84;5077297;28;20115;-81
2021/12/02 02:39:02;;;;;;;19.70;9.65;;;;;;;-3.08;100.00;94593.47;5082574;28;20484;-81
2021/12/02 02:41:37;;;;;;;20.90;9.52;;;;;;;-2.88;100.00;94599.13;5075550;28;20041;-79
2021/12/02 02:44:04;;;;;;;13.88;8.45;;;;;;;-2.91;100.00;94584.13;5070869;28;20036;-79
2021/12/02 02:46:34;;;;;;;16.88;9.43;;;;;;;-2.77;100.00;94589.63;5071794;28;20063;-79
2021/12/02 02:49:05;;;;;;;14.18;8.35;;;;;;;-2.81;100.00;94576.38;5074256;28;20048;-79
2021/12/02 02:51:33;;;;;;;18.55;9.05;;;;;;;-2.77;100.00;94569.22;5075307;28;20804;-80
2021/12/02 02:54:04;;;;;;;12.50;7.85;;;;;;;-2.96;100.00;94571.03;5060220;28;20044;-79
2021/12/02 02:56:34;;;;;;;11.38;6.57;;;;;;;-2.85;100.00;94577.63;5075354;28;20037;-79
2021/12/02 02:59:18;;;;;;;15.02;8.63;;;;;;;-3.17;100.00;94574.00;5076818;28;20040;-79
2021/12/02 03:04:37;;;;;;;11.75;6.75;;;;;;;-3.33;100.00;94549.25;5077242;28;20424;-79
2021/12/02 03:09:50;;;;;;;12.57;7.68;;;;;;;-3.24;100.00;94544.19;5080969;28;20072;-79
2021/12/02 03:14:53;;;;;;;15.63;7.15;;;;;;;-2.95;100.00;94582.06;5082423;28;20033;-79
2021/12/02 03:17:20;;;;;;;11.10;6.50;;;;;;;-3.00;100.00;94564.66;5077891;28;20043;-79
2021/12/02 03:19:47;;;;;;;8.88;5.50;;;;;;;-3.06;100.00;94555.09;5078825;28;20051;-80
2021/12/02 03:22:16;;;;;;;9.02;6.07;;;;;;;-2.98;100.00;94565.31;5079012;28;20497;-80
2021/12/02 03:24:43;;;;;;;13.15;7.88;;;;;;;-3.30;100.00;94563.41;5074221;28;20032;-79
2021/12/02 03:27:10;;;;;;;11.60;5.95;;;;;;;-3.11;100.00;94559.84;5077642;28;20218;-78
2021/12/02 03:29:37;;;;;;;10.02;5.82;;;;;;;-3.09;100.00;94546.00;5077674;28;20424;-79
2021/12/02 03:32:04;;;;;;;15.07;6.72;;;;;;;-2.99;100.00;94551.00;5078710;28;20055;-80
2021/12/02 03:34:32;;;;;;;13.55;7.35;;;;;;;-3.04;100.00;94558.28;5080982;28;20043;-80
2021/12/02 03:36:59;;;;;;;13.55;6.65;;;;;;;-3.17;100.00;94563.00;5081353;28;20041;-80
2021/12/02 03:39:26;;;;;;;12.82;6.30;;;;;;;-3.10;100.00;94553.78;5081427;28;20075;-80
2021/12/02 03:41:55;;;;;;;10.82;5.32;;;;;;;-3.04;100.00;94562.56;5079455;28;20135;-80
2021/12/02 03:44:23;;;;;;;12.07;6.40;;;;;;;-2.99;100.00;94555.25;5077893;28;20040;-80
2021/12/02 03:46:50;;;;;;;9.05;5.55;;;;;;;-3.30;100.00;94545.59;5075600;28;20043;-80
2021/12/02 03:49:18;;;;;;;13.60;5.97;;;;;;;-3.18;100.00;94551.22;5077466;28;20059;-80
2021/12/02 03:51:44;;;;;;;12.27;6.47;;;;;;;-3.04;100.00;94557.47;5076737;28;20043;-80
2021/12/02 03:54:12;;;;;;;12.35;5.50;;;;;;;-3.04;100.00;94543.00;5081119;28;20498;-80
2021/12/02 03:56:39;;;;;;;13.20;6.05;;;;;;;-3.01;100.00;94545.22;5076570;28;20037;-79
2021/12/02 03:59:06;;;;;;;8.13;5.20;;;;;;;-2.99;100.00;94542.53;5077951;28;20048;-80
2021/12/02 04:01:33;;;;;;;11.77;6.25;;;;;;;-3.09;100.00;94530.72;5082071;28;20045;-79
2021/12/02 04:04:00;;;;;;;9.35;5.55;;;;;;;-2.94;100.00;94547.97;5083730;28;20066;-79
2021/12/02 04:06:27;;;;;;;8.95;4.68;;;;;;;-3.08;100.00;94541.69;5077871;28;20024;-80
2021/12/02 04:08:59;;;;;;;9.93;5.72;;;;;;;-3.13;100.00;94534.53;5079150;28;20406;-79
2021/12/02 04:11:36;;;;;;;9.10;4.90;;;;;;;-3.11;100.00;94526.75;5079800;28;20055;-81
2021/12/02 04:14:15;;;;;;;8.48;5.03;;;;;;;-3.00;100.00;94539.19;5074428;28;22008;-80
2021/12/02 04:16:51;;;;;;;8.88;4.85;;;;;;;-2.98;100.00;94532.19;5074642;28;20056;-80
2021/12/02 04:19:20;;;;;;;18.15;8.38;;;;;;;-3.03;100.00;94524.19;5079233;28;20046;-79
2021/12/02 04:21:47;;;;;;;16.55;6.18;;;;;;;-3.09;100.00;94524.84;5076429;28;20032;-80
2021/12/02 04:24:14;;;;;;;30.77;11.75;;;;;;;-3.05;100.00;94530.41;5073277;28;20036;-79
2021/12/02 04:26:43;;;;;;;24.02;10.05;;;;;;;-3.18;100.00;94525.75;5083001;28;20119;-79
2021/12/02 04:29:11;;;;;;;22.17;11.48;;;;;;;-3.18;100.00;94548.69;5081996;28;20041;-79
2021/12/02 04:31:42;;;;;;;21.35;11.60;;;;;;;-3.22;100.00;94534.63;5080841;28;20048;-79
2021/12/02 04:34:10;;;;;;;22.52;10.63;;;;;;;-3.32;100.00;94520.28;5076273;28;20111;-79
2021/12/02 04:36:38;;;;;;;28.25;13.07;;;;;;;-3.33;100.00;94507.69;5082548;28;20032;-80
2021/12/02 04:39:06;;;;;;;27.00;12.77;;;;;;;-3.22;100.00;94521.91;5081274;28;20572;-80
2021/12/02 04:41:33;;;;;;;25.38;13.13;;;;;;;-3.24;100.00;94522.06;5080261;28;20058;-81
2021/12/02 04:44:01;;;;;;;13.95;7.90;;;;;;;-3.23;100.00;94527.97;5077942;28;20565;-80
2021/12/02 04:46:28;;;;;;;8.93;6.20;;;;;;;-3.35;100.00;94504.50;5080112;28;20033;-82
2021/12/02 04:48:55;;;;;;;11.98;6.40;;;;;;;-3.43;100.00;94518.00;5076403;28;20051;-81
2021/12/02 04:51:23;;;;;;;23.40;10.43;;;;;;;-3.33;100.00;94533.97;5077474;28;20043;-81
2021/12/02 04:53:50;;;;;;;20.00;9.88;;;;;;;-3.30;100.00;94538.75;5074618;28;20060;-81
2021/12/02 04:56:17;;;;;;;24.40;10.95;;;;;;;-3.53;100.00;94496.94;5077724;28;20032;-81
2021/12/02 04:58:44;;;;;;;19.95;11.43;;;;;;;-3.34;100.00;94522.19;5076196;28;20898;-81
2021/12/02 05:01:10;;;;;;;17.05;9.73;;;;;;;-3.25;100.00;94532.41;5076282;28;20159;-82
2021/12/02 05:03:37;;;;;;;13.25;8.50;;;;;;;-3.36;100.00;94513.91;5074706;28;20050;-82
2021/12/02 05:06:04;;;;;;;11.98;6.80;;;;;;;-3.34;100.00;94516.28;5076995;28;20036;-82
2021/12/02 05:08:31;;;;;;;10.07;7.15;;;;;;;-3.31;100.00;94521.09;5077168;28;20472;-80
2021/12/02 05:10:58;;;;;;;15.27;7.97;;;;;;;-3.36;100.00;94524.09;5076310;28;20523;-80
2021/12/02 05:13:25;;;;;;;11.80;6.53;;;;;;;-3.50;100.00;94501.75;5076006;28;20023;-79
2021/12/02 05:15:52;;;;;;;12.70;7.07;;;;;;;-3.39;100.00;94493.81;5080090;28;20040;-79
2021/12/02 05:18:19;;;;;;;12.13;5.18;;;;;;;-3.35;100.00;94489.22;5075800;28;20044;-79
2021/12/02 05:20:47;;;;;;;17.23;9.75;;;;;;;-3.25;100.00;94510.28;5073133;28;20521;-79
2021/12/02 05:23:14;;;;;;;17.13;8.85;;;;;;;-3.30;100.00;94503.09;5076413;28;20424;-80
2021/12/02 05:25:44;;;;;;;25.92;11.50;;;;;;;-3.17;100.00;94512.06;5080422;28;20052;-78
2021/12/02 05:28:14;;;;;;;24.10;7.53;;;;;;;-3.19;100.00;94509.66;5081134;28;20042;-79
2021/12/02 05:30:42;;;;;;;25.25;10.38;;;;;;;-3.21;100.00;94506.47;5079906;28;20044;-79
2021/12/02 05:33:09;;;;;;;22.65;11.40;;;;;;;-3.27;100.00;94502.00;5076204;28;20029;-79
2021/12/02 05:35:36;;;;;;;18.13;8.68;;;;;;;-3.27;100.00;94512.97;5074623;28;20429;-80
2021/12/02 05:38:04;;;;;;;44.72;21.45;;;;;;;-3.73;100.00;94527.69;5078315;28;20921;-79
2021/12/02 05:40:31;;;;;;;29.88;14.35;;;;;;;-3.85;100.00;94508.56;5078983;28;20040;-80
2021/12/02 05:42:58;;;;;;;45.67;19.48;;;;;;;-4.18;100.00;94508.34;5073354;28;20115;-79
2021/12/02 05:45:25;;;;;;;42.53;20.98;;;;;;;-4.14;100.00;94509.66;5083273;28;20041;-78
2021/12/02 05:47:52;;;;;;;35.75;17.45;;;;;;;-4.15;100.00;94508.03;5072184;28;20119;-78
2021/12/02 05:50:19;;;;;;;28.15;14.60;;;;;;;-4.15;100.00;94497.06;5075211;28;20048;-78
2021/12/02 05:52:46;;;;;;;30.70;14.13;;;;;;;-4.29;100.00;94511.13;5079351;28;20059;-77
2021/12/02 05:55:13;;;;;;;23.45;12.82;;;;;;;-4.37;100.00;94508.53;5081084;28;20119;-78
2021/12/02 05:57:40;;;;;;;28.80;11.90;;;;;;;-4.34;100.00;94477.69;5090887;28;20062;-79
2021/12/02 06:00:08;;;;;;;32.25;18.17;;;;;;;-4.20;100.00;94472.06;5090368;28;20051;-77
2021/12/02 06:02:38;;;;;;;25.23;14.48;;;;;;;-3.98;100.00;94490.34;5084485;28;20098;-77
2021/12/02 06:05:06;;;;;;;28.25;14.13;;;;;;;-3.87;100.00;94495.16;5080104;28;20043;-79
2021/12/02 06:07:33;;;;;;;26.23;12.35;;;;;;;-3.80;100.00;94506.34;5074276;28;20119;-78
2021/12/02 06:10:00;;;;;;;23.83;10.63;;;;;;;-3.84;100.00;94489.78;5071280;28;20135;-81
2021/12/02 06:12:27;;;;;;;24.20;13.50;;;;;;;-3.73;100.00;94502.25;5076036;28;20127;-81
2021/12/02 06:14:54;;;;;;;31.88;18.30;;;;;;;-3.63;100.00;94512.34;5082312;28;20109;-80
2021/12/02 06:17:21;;;;;;;39.70;19.45;;;;;;;-3.55;100.00;94514.91;5073880;28;20036;-81
2021/12/02 06:19:47;;;;;;;44.80;20.30;;;;;;;-3.40;100.00;94507.53;5073512;28;20040;-81
2021/12/02 06:22:14;;;;;;;43.60;21.38;;;;;;;-3.40;100.00;94507.53;5070605;28;20545;-79
2021/12/02 06:27:28;;;;;;;27.05;15.85;;;;;;;-3.08;100.00;94518.75;5050879;28;20555;-79
2021/12/02 06:29:55;;;;;;;31.48;15.77;;;;;;;-3.04;100.00;94507.34;5076768;28;20145;-79
2021/12/02 06:32:23;;;;;;;36.58;15.68;;;;;;;-2.91;100.00;94522.97;5075791;28;20040;-78
2021/12/02 06:34:51;;;;;;;34.97;19.40;;;;;;;-2.90;100.00;94509.28;5078473;28;20071;-78
2021/12/02 06:37:17;;;;;;;41.22;19.13;;;;;;;-2.79;100.00;94515.84;5076782;28;20040;-79
2021/12/02 06:39:44;;;;;;;35.53;19.75;;;;;;;-2.73;100.00;94516.97;5077466;28;20500;-79
2021/12/02 06:42:11;;;;;;;44.13;22.27;;;;;;;-2.65;100.00;94501.66;5076547;28;20127;-78
2021/12/02 06:44:38;;;;;;;30.27;15.20;;;;;;;-2.53;100.00;94502.94;5078113;28;20115;-78
2021/12/02 06:47:05;;;;;;;25.40;13.70;;;;;;;-2.37;100.00;94520.03;5074977;28;20075;-79
2021/12/02 06:49:33;;;;;;;32.42;17.13;;;;;;;-2.28;100.00;94513.19;5078515;28;20067;-80
2021/12/02 06:52:01;;;;;;;27.42;13.15;;;;;;;-2.22;100.00;94502.31;5077691;28;20055;-81
2021/12/02 06:54:28;;;;;;;33.38;14.10;;;;;;;-2.12;100.00;94513.19;5076570;28;20044;-82
2021/12/02 06:56:55;;;;;;;116.78;48.40;;;;;;;-1.99;100.00;94506.78;5082729;28;20498;-80
2021/12/02 06:59:22;;;;;;;51.72;26.95;;;;;;;-2.05;100.00;94477.59;5075104;28;20059;-81
2021/12/02 07:01:49;;;;;;;50.22;26.20;;;;;;;-1.75;100.00;94514.41;5075259;28;20051;-80
2021/12/02 07:04:16;;;;;;;36.67;19.38;;;;;;;-1.83;100.00;94505.97;5073897;28;20420;-79
2021/12/02 07:06:44;;;;;;;42.38;23.85;;;;;;;-2.27;100.00;94504.56;5071461;28;20490;-80
2021/12/02 07:09:11;;;;;;;45.75;21.65;;;;;;;-2.30;100.00;94522.75;5077066;28;20060;-80
2021/12/02 07:11:39;;;;;;;66.78;34.67;;;;;;;-2.31;100.00;94523.69;5072601;28;20520;-80
2021/12/02 07:14:13;;;;;;;28.55;15.30;;;;;;;-2.30;100.00;94515.09;5080223;28;20131;-80
2021/12/02 07:16:41;;;;;;;28.35;13.05;;;;;;;-2.37;100.00;94514.13;5069996;28;20055;-82
2021/12/02 07:19:13;;;;;;;27.40;11.85;;;;;;;-2.36;100.00;94528.47;5077549;28;20041;-82
2021/12/02 07:21:43;;;;;;;24.67;12.77;;;;;;;-2.24;100.00;94523.88;5075003;28;20406;-82
2021/12/02 07:24:13;;;;;;;27.65;13.95;;;;;;;-2.09;100.00;94516.34;5069962;28;20602;-83
2021/12/02 07:27:01;;;;;;;32.25;13.45;;;;;;;-1.98;100.00;94528.78;5074965;28;20032;-82
2021/12/02 07:29:28;;;;;;;31.13;15.43;;;;;;;-2.05;100.00;94522.72;5073754;28;20052;-82
2021/12/02 07:31:56;;;;;;;47.15;20.10;;;;;;;-1.98;100.00;94519.41;5073191;28;20059;-82
2021/12/02 07:34:25;;;;;;;32.42;17.00;;;;;;;-1.75;100.00;94532.28;5072810;28;20045;-82
2021/12/02 07:36:55;;;;;;;32.55;14.18;;;;;;;-1.62;100.00;94528.41;5074936;28;20036;-82
2021/12/02 07:39:23;;;;;;;31.27;17.63;;;;;;;-1.61;100.00;94507.03;5081542;28;20119;-84
2021/12/02 07:41:50;;;;;;;53.10;22.40;;;;;;;-1.44;100.00;94511.16;5078030;28;20048;-82
2021/12/02 07:44:18;;;;;;;60.10;24.60;;;;;;;-1.25;100.00;94511.72;5070869;28;20056;-82
2021/12/02 07:46:45;;;;;;;30.30;16.63;;;;;;;-1.14;100.00;94513.91;5077731;28;20064;-80
2021/12/02 07:49:13;;;;;;;42.38;20.08;;;;;;;-1.00;100.00;94513.19;5076095;28;20116;-80
2021/12/02 07:51:44;;;;;;;39.58;19.20;;;;;;;-1.00;100.00;94508.09;5084930;28;20071;-81
2021/12/02 07:54:13;;;;;;;51.28;24.15;;;;;;;-0.88;100.00;94505.16;5083389;28;20064;-81
2021/12/02 07:56:40;;;;;;;42.30;19.65;;;;;;;-0.80;100.00;94502.56;5084084;28;20111;-80
2021/12/02 07:59:09;;;;;;;33.33;19.52;;;;;;;-0.63;100.00;94498.94;5078571;28;20043;-82
2021/12/02 08:01:36;;;;;;;25.23;15.23;;;;;;;-0.53;100.00;94498.72;5092682;28;20487;-83
2021/12/02 08:04:04;;;;;;;23.67;11.35;;;;;;;-0.30;100.00;94516.63;5086531;28;20074;-81
2021/12/02 08:06:30;;;;;;;18.77;9.82;;;;;;;-0.24;100.00;94513.38;5085665;28;20128;-84
2021/12/02 08:08:57;;;;;;;32.97;13.85;;;;;;;-0.10;100.00;94518.72;5077281;28;20075;-84
2021/12/02 08:11:24;;;;;;;25.42;14.63;;;;;;;0.00;100.00;94509.06;5076854;28;20067;-84
2021/12/02 08:13:54;;;;;;;28.35;12.93;;;;;;;0.17;100.00;94510.47;5069831;28;20064;-84
2021/12/02 08:16:21;;;;;;;19.45;8.73;;;;;;;0.35;100.00;94509.38;5072342;28;20506;-82
2021/12/02 08:18:48;;;;;;;16.95;8.20;;;;;;;0.51;100.00;94498.94;5071793;28;20056;-84
2021/12/02 08:21:20;;;;;;;26.98;13.57;;;;;;;0.71;100.00;94506.09;5072124;28;20068;-87
2021/12/02 08:23:46;;;;;;;24.17;11.65;;;;;;;0.81;100.00;94501.50;5074623;28;20057;-83
2021/12/02 08:26:16;;;;;;;25.05;11.52;;;;;;;1.00;100.00;94494.22;5073784;28;20082;-83
2021/12/02 08:28:43;;;;;;;24.05;12.02;;;;;;;1.31;100.00;94517.06;5073459;28;20079;-83
2021/12/02 08:31:10;;;;;;;36.00;18.55;;;;;;;1.56;100.00;94525.22;5073687;28;20545;-83
2021/12/02 08:33:37;;;;;;;29.50;14.07;;;;;;;1.76;100.00;94527.97;5078075;28;20569;-83
2021/12/02 08:36:04;;;;;;;35.28;16.08;;;;;;;1.84;100.00;94527.09;5083955;28;20064;-82
2021/12/02 08:38:32;;;;;;;24.80;13.73;;;;;;;1.93;100.00;94525.97;5076959;28;20466;-83
2021/12/02 08:41:00;;;;;;;24.25;12.85;;;;;;;1.95;100.00;94523.22;5077245;28;20048;-83
2021/12/02 08:43:29;;;;;;;28.88;13.00;;;;;;;2.00;100.00;94506.28;5080861;28;20123;-81
2021/12/02 08:45:56;;;;;;;28.73;14.32;;;;;;;2.16;100.00;94519.81;5079087;28;20116;-79
2021/12/02 08:48:24;;;;;;;24.10;13.38;;;;;;;2.32;100.00;94506.69;5077957;28;20040;-80
2021/12/02 08:50:51;;;;;;;26.02;14.15;;;;;;;2.45;100.00;94498.28;5083351;28;20115;-80
2021/12/02 08:53:18;;;;;;;36.72;19.10;;;;;;;2.74;100.00;94502.41;5078814;28;20044;-80
2021/12/02 08:55:45;;;;;;;51.03;24.88;;;;;;;2.87;97.12;94502.47;5074324;28;20041;-81
2021/12/02 08:58:12;;;;;;;39.42;18.23;;;;;;;2.97;99.40;94480.72;5082495;28;20055;-81
2021/12/02 09:00:40;;;;;;;38.38;19.10;;;;;;;3.16;97.72;94485.16;5078216;28;20044;-79
2021/12/02 09:03:12;;;;;;;28.90;14.55;;;;;;;3.14;97.38;94487.13;5078298;28;20032;-80
2021/12/02 09:05:40;;;;;;;33.17;16.33;;;;;;;3.56;99.52;94489.63;5078518;28;20052;-81
2021/12/02 09:08:07;;;;;;;57.90;21.98;;;;;;;3.89;93.47;94474.22;5071439;28;20107;-78
2021/12/02 09:10:35;;;;;;;38.78;17.10;;;;;;;4.20;95.53;94475.41;5074388;28;21031;-82
2021/12/02 09:13:10;;;;;;;77.55;33.22;;;;;;;4.45;94.21;94472.19;5072754;28;20044;-81
2021/12/02 09:15:38;;;;;;;;;;;;;;;4.86;88.83;94464.16;5076224;28;20040;-81
2021/12/02 09:18:06;;;;;;;39.08;14.95;;;;;;;5.05;90.37;94457.31;5077968;28;19927;-80
2021/12/02 09:20:33;;;;;;;21.38;11.35;;;;;;;5.24;87.33;94460.81;5080993;28;20519;-79
2021/12/02 09:23:00;;;;;;;32.33;15.65;;;;;;;5.45;88.00;94451.94;5072537;28;20128;-83
2021/12/02 09:25:27;;;;;;;39.40;17.95;;;;;;;5.40;90.29;94428.53;5082476;28;20122;-83
2021/12/02 09:27:55;;;;;;;24.25;10.07;;;;;;;5.75;85.89;94451.38;5075207;28;20119;-82
2021/12/02 09:30:22;;;;;;;31.10;16.95;;;;;;;6.03;84.47;94437.25;5070829;28;20045;-82
2021/12/02 09:32:49;;;;;;;24.25;12.10;;;;;;;6.25;84.58;94425.53;5078401;28;20509;-84
2021/12/02 09:35:16;;;;;;;19.80;9.55;;;;;;;6.86;81.64;94438.63;5082704;28;20036;-82
2021/12/02 09:37:43;;;;;;;23.50;13.30;;;;;;;6.95;79.27;94449.50;5074252;28;20780;-83
2021/12/02 09:40:12;;;;;;;20.40;12.23;;;;;;;6.98;78.27;94443.88;5078961;28;20059;-79
2021/12/02 09:42:41;;;;;;;16.33;10.20;;;;;;;7.16;78.88;94450.84;5078176;28;20068;-79
2021/12/02 09:45:08;;;;;;;18.77;11.13;;;;;;;7.27;77.49;94442.31;5073530;28;20072;-82
2021/12/02 09:47:39;;;;;;;33.50;15.70;;;;;;;7.50;73.68;94440.84;5077397;28;21579;-82
2021/12/02 09:50:16;;;;;;;18.60;10.05;;;;;;;7.38;75.05;94439.00;5073432;28;20390;-82
2021/12/02 09:52:44;;;;;;;20.85;8.68;;;;;;;7.57;72.62;94423.41;5075026;28;20040;-80
2021/12/02 09:57:49;;;;;;;14.95;7.32;;;;;;;8.61;67.81;94428.91;5075243;28;20570;-79
2021/12/02 10:00:23;;;;;;;12.43;7.45;;;;;;;8.66;68.41;94417.03;5074793;28;20520;-79
2021/12/02 10:03:03;;;;;;;16.40;7.95;;;;;;;8.23;71.06;94419.75;5076232;28;20122;-80
2021/12/02 10:05:45;;;;;;;9.68;6.50;;;;;;;8.45;70.47;94427.00;5078971;28;21978;-80
2021/12/02 10:08:21;;;;;;;10.30;5.68;;;;;;;8.98;69.50;94413.03;5076843;28;20089;-81
2021/12/02 10:10:53;;;;;;;8.85;4.20;;;;;;;8.55;68.35;94406.47;5078921;28;20037;-82
2021/12/02 10:16:31;;;;;;;13.20;7.05;;;;;;;9.29;65.19;94400.59;5079291;28;20036;-84
2021/12/02 10:19:05;;;;;;;43.47;22.27;;;;;;;9.28;66.99;94390.44;5076655;28;20123;-86
2021/12/02 10:21:48;;;;;;;16.05;9.15;;;;;;;9.20;62.40;94386.41;5074197;28;20498;-86
2021/12/02 10:24:23;;;;;;;7.80;5.20;;;;;;;9.85;62.19;94397.34;5074760;28;20059;-83
2021/12/02 10:27:04;;;;;;;10.35;5.25;;;;;;;10.44;55.83;94378.69;5070684;28;20124;-85
2021/12/02 10:29:47;;;;;;;7.65;4.80;;;;;;;9.85;58.26;94387.72;5074350;28;20044;-86
2021/12/02 10:32:22;;;;;;;13.85;8.95;;;;;;;10.57;55.99;94387.97;5071744;28;20055;-87
2021/12/02 10:34:54;;;;;;;11.90;7.28;;;;;;;10.52;56.74;94386.88;5077248;28;20048;-87
2021/12/02 10:37:27;;;;;;;9.30;5.68;;;;;;;11.00;54.81;94366.34;5073404;28;20563;-83
2021/12/02 10:40:06;;;;;;;11.75;4.28;;;;;;;11.42;51.67;94367.53;5075338;28;20046;-84
2021/12/02 10:42:38;;;;;;;31.55;14.45;;;;;;;11.62;48.27;94378.16;5079777;28;20565;-81
2021/12/02 10:45:07;;;;;;;23.38;12.70;;;;;;;11.90;48.91;94363.25;5068662;28;20032;-84
2021/12/02 10:47:35;;;;;;;31.63;19.30;;;;;;;11.84;47.75;94364.22;5073156;28;20044;-84
2021/12/02 10:50:10;;;;;;;15.30;9.45;;;;;;;12.62;45.25;94353.22;5071465;28;20128;-81
2021/12/02 10:52:37;;;;;;;10.50;5.28;;;;;;;12.92;45.71;94351.78;5091271;28;20040;-80
2021/12/02 10:55:08;;;;;;;17.88;7.72;;;;;;;13.29;44.46;94358.66;5072878;28;20044;-78
2021/12/02 10:57:38;;;;;;;424.63;167.18;;;;;;;13.10;44.33;94358.38;5070291;28;20123;-80
2021/12/02 11:00:12;;;;;;;63.00;29.63;;;;;;;12.95;44.78;94351.28;5067214;28;20047;-78
2021/12/02 11:02:47;;;;;;;19.20;5.75;;;;;;;12.11;47.35;94347.75;5078249;28;20044;-77
2021/12/02 11:05:21;;;;;;;10.43;5.60;;;;;;;11.72;49.60;94346.16;5069530;28;20051;-77
2021/12/02 11:08:04;;;;;;;10.30;6.50;;;;;;;12.01;48.39;94322.34;5072161;28;20044;-77
2021/12/02 11:10:39;;;;;;;7.65;4.50;;;;;;;11.86;50.04;94326.41;5080316;28;20040;-76
2021/12/02 11:13:08;;;;;;;11.82;4.78;;;;;;;11.95;48.33;94313.69;5079816;28;20094;-76
2021/12/02 11:15:38;;;;;;;11.25;5.47;;;;;;;12.38;48.15;94309.25;5077214;28;20135;-74
2021/12/02 11:18:08;;;;;;;10.35;3.97;;;;;;;12.13;50.14;94298.69;5073596;28;20068;-73
2021/12/02 11:20:59;;;;;;;24.35;11.65;;;;;;;13.12;46.58;94289.06;5072959;28;20058;-76
2021/12/02 11:23:47;;;;;;;14.70;6.65;;;;;;;14.03;44.55;94306.91;5078258;28;20799;-74
2021/12/02 11:26:17;;;;;;;9.80;5.13;;;;;;;12.89;46.89;94289.56;5078455;28;20125;-75
2021/12/02 11:28:45;;;;;;;9.02;5.30;;;;;;;13.16;46.06;94295.38;5075046;28;20088;-73
2021/12/02 11:31:18;;;;;;;13.75;6.07;;;;;;;13.55;46.13;94313.19;5074229;28;20459;-74
2021/12/02 11:33:48;;;;;;;17.17;9.35;;;;;;;13.43;46.45;94304.81;5071906;28;20067;-73
2021/12/02 11:36:19;;;;;;;34.03;18.60;;;;;;;14.00;45.87;94307.41;5077860;28;20051;-75
2021/12/02 11:38:50;;;;;;;14.63;8.13;;;;;;;14.31;43.72;94287.97;5078084;28;20454;-74
2021/12/02 11:41:19;;;;;;;16.33;8.55;;;;;;;14.23;45.05;94291.13;5077789;28;20074;-75
2021/12/02 11:43:46;;;;;;;12.07;5.68;;;;;;;13.71;47.51;94271.34;5081424;28;20036;-74
2021/12/02 11:46:13;;;;;;;21.52;10.60;;;;;;;13.35;48.32;94271.34;5076788;28;20118;-74
2021/12/02 11:48:43;;;;;;;30.35;12.15;;;;;;;13.67;47.77;94278.16;5076960;28;20043;-76